Accueil
METAR-TAF:

METAR-TAF

Aéroports :

McKinley Park, Alaska, États-Unis

latitude: 63-44N, longitude: 148-55W, altitude: 524 m

Observation

Le bulletin a été fait il y a 12 minutes, à 19:56 UTC
Vent calme
Température -18°C
Humidité 71%
Pression 1011 hPa
Visibilité: 16.1 km
Nuages épars à une hauteur de 4200 ft
Ciel couvert à une hauteur de 5000 ft

METAR: PAIN 161956Z AUTO 00000KT 10SM SCT042 OVC050 M18/M22 A2985 RMK AO2 SNE11 SLP185 P0000 T11831222 FZRANO

Heure: 11:08 (20:08 UTC)


TAF: absent

Observations et prévisions météorologiques de plus de 4000 aéroports (messages METAR et TAF).

Les stations disponibles sont représentées par des disques jaunes et rouges sur la carte.

Passer la souris dessus pour voir le nom de la station.

Cliquer dessus pour voir les observations et prévisions météorologiques.

Pour changer de carte: cliquez sur les boutons verts avec une croix noire pour zoomer, sur le bouton vert avec un tiret pour effectuer un zoom arrière, ou sur les flèches vertes pour les cartes adjacentes.


METAR-TAF: